Historyczne dane pomiarowe

Dodano dane terminowe – wersja testowa.

Dane z okresu 1951-2019

Wersja bazy: 1.34 [2019-03-16, lista zmian], aktualizacja planowana na 2019-04-15

Dane meteo z obszaru Polski uzyskane na podstawie danych udostępnionych przez Instytut Meteorologii i Gospodarki Wodnej – Państwowy Instytut Badawczy.

 

Wybierz Datę:    

       

TemperaturaWilgotnośćWiatrCiśnienieOpadyŚniegCzas trwania zjawisk
 Stacja t tx tn tng RH VA  wxwx mslp ppp RRR   cm mm wxwxwxwxwxwxwx
1999-08-14 15.1 21.0 10.1 7.9 83.5- 2.0 1.3---- 0.0------------
1999-08-13 16.0 21.5 10.7 8.1 82.0- 6.7 1.7---- 0.0------------
1999-08-12 17.2 20.0 15.7 11.6 92.3- 5.7 2.3---- 0.2------------
1999-08-11 20.1 23.7 18.3 13.5 92.5- 6.0 2.3---- 8.8------------
1999-08-10 21.1 29.7 16.2 14.3 88.8- 4.3 1.7---- 60.0------------
1999-08-09 23.5 31.8 16.0 13.1 78.0- 3.0 1.7---- 21.6------------
1999-08-08 21.7 27.8 15.5 12.8 81.5- 4.3 1.7---- 0.0------------
1999-08-07 20.0 27.5 13.2 10.4 83.8- 3.7 1.7---- 0.0------------
1999-08-06 18.0 24.7 13.4 11.1 83.5- 4.3 1.7---- 4.6------------
1999-08-05 18.4 26.6 11.4 9.3 78.0- 4.3 1.0---- 0.0------------
1999-08-04 17.9 22.5 14.5 13.1 84.3- 6.3 1.0---- 0.3------------
1999-08-03 17.8 21.2 14.9 14.1 85.8- 7.7 1.0---- 0.7------------
1999-08-02 16.8 20.6 14.2 13.5 86.8- 7.0 2.3---- 0.3------------
1999-08-01 18.6 23.0 13.6 11.3 69.8- 6.3 1.7---- 11.6------------
1999-07-31 17.7 25.5 9.9 6.8 70.8- 4.0 3.0---- 0.0------------
1999-07-30 17.6 25.7 10.2 7.3 71.3- 3.0 2.7---- 0.0------------
1999-07-29 17.1 24.9 11.1 9.0 75.8- 2.0 2.3---- 0.0------------
1999-07-28 17.8 20.9 14.5 13.0 92.8- 7.0 2.3---- 1.8------------
1999-07-27 21.2 27.7 16.2 14.3 76.0- 6.3 1.7---- 30.3------------
1999-07-26 22.5 29.6 15.4 12.1 70.8- 5.7 2.0---- 0.0------------
1999-07-25 18.8 25.0 11.6 9.8 83.8- 4.0 1.0---- 0.0------------
1999-07-24 18.2 24.0 13.6 13.3 84.3- 5.7 1.0---- 0.0------------
1999-07-23 16.3 21.6 14.2 14.2 96.3- 8.0 3.3---- 8.8------------
1999-07-22 22.1 28.5 16.1 13.3 65.0- 5.3 3.3---- 11.7------------
1999-07-21 22.4 29.6 14.1 11.4 67.8- 3.3 2.3---- 0.0------------
1999-07-20 21.2 29.7 11.8 9.5 74.8- 1.7 3.3---- 0.0------------
1999-07-19 17.1 26.6 9.6 7.3 78.5- 5.3 2.3---- 3.1------------
1999-07-18 17.7 24.5 9.6 7.3 86.8- 3.0 1.0---- 0.0------------
1999-07-17 16.1 23.0 8.1 5.8 76.3- 4.7 1.7---- 0.0------------
1999-07-16 16.4 23.6 8.3 6.4 73.8- 2.3 3.0---- 0.0------------
1999-07-15 17.6 23.2 15.0 14.6 95.5- 6.7 1.7---- 9.4------------
1999-07-14 22.2 28.5 16.5 14.8 77.3- 5.0 1.7---- 3.2------------
1999-07-13 21.2 26.5 16.5 12.8 82.3- 5.0 1.7---- 0.0------------
1999-07-12 21.9 29.5 16.5 13.3 64.3- 4.0 1.0---- 0.0------------
1999-07-11 21.2 27.0 16.5 14.8 58.3- 4.3 3.7---- 0.0------------
1999-07-10 20.3 24.8 17.0 15.8 79.3- 4.3 4.3---- 0.0------------
1999-07-09 22.1 27.5 16.3 14.7 81.0- 5.7 3.3---- 0.0------------
1999-07-08 22.1 27.6 17.3 16.0 86.3- 8.0 2.3---- 0.1------------
1999-07-07 23.5 30.5 18.7 15.9 74.5- 4.0 3.0---- 2.6------------
1999-07-06 25.6 33.0 18.2 15.4 68.5- 1.7 2.7---- 0.0------------
1999-07-05 23.9 31.6 15.3 12.3 68.0- 0.7 3.7---- 0.0------------
1999-07-04 21.9 29.8 12.7 10.8 75.0- 0.3 0.7---- 0.0------------
1999-07-03 20.7 26.7 12.6 9.8 86.0- 3.3 1.0---- 0.0------------
1999-07-02 21.4 26.3 17.0 15.8 75.3- 3.3 3.0---- 0.0------------
1999-07-01 19.9 25.5 15.1 12.4 77.3- 5.0 3.0---- 0.2------------
1999-06-30 20.6 26.0 14.3 12.2 71.3- 3.0 2.3---- 0.0------------
1999-06-29 20.4 25.7 14.6 11.6 72.3- 2.7 3.7---- 0.0------------
1999-06-28 21.1 29.2 10.1 7.2 62.8- 2.0 3.0---- 0.0------------
1999-06-27 18.4 25.5 8.1 5.7 74.0- 0.3 1.0---- 0.0------------
1999-06-26 15.5 23.0 6.6 5.2 85.0- 0.7 1.3---- 0.0------------
1999-06-25 14.3 19.2 11.0 10.6 91.0- 5.3 2.3---- 0.0------------
1999-06-24 11.5 12.2 11.1 10.9 95.0- 8.0 4.3---- 10.3------------
1999-06-23 11.0 12.5 10.1 9.8 96.8- 8.0 5.0---- 4.6------------
1999-06-22 16.9 24.5 12.2 12.2 87.8- 7.3 4.3---- 27.5------------
1999-06-21 20.0 25.0 15.3 13.8 89.5- 6.0 2.3---- 10.5------------
1999-06-20 20.2 24.7 16.0 15.7 92.5- 4.7 1.0---- 0.0------------
1999-06-19 20.7 26.6 14.1 12.6 80.8- 6.0 3.7---- 3.3------------
1999-06-18 21.0 26.5 16.1 14.1 83.5- 6.0 3.0---- 0.0------------
1999-06-17 20.5 25.7 17.3 16.3 82.3- 6.7 1.7---- 6.3------------
1999-06-16 19.4 23.5 15.1 13.7 91.8- 7.7 1.3---- 0.3------------
1114.6 ms

 

Źródłem pochodzenia danych jest Instytut Meteorologii i Gospodarki Wodnej – Państwowy Instytut Badawczy. Dane Instytutu Meteorologii i Gospodarki Wodnej – Państwowego Instytutu Badawczego zostały przetworzone.

Dane źródłowe można odnaleźć na stronie https://dane.imgw.pl